Time;durP1;ratioP1;P1;durP2;ratioP2;P2;SDS_P1;SDS_P2;PMS_P1;PMS_P2;Temp;Humidity;BMP_temperature;BMP_pressure;BME280_temperature;BME280_humidity;BME280_pressure;Samples;Min_cycle;Max_cycle;Signal;HPM_P1;HPM_P2
2021/01/31 00:00:16;;;;;;;0.50;0.50;;;19.80;35.80;;;;;;4826129;29;20030;-76
2021/01/31 00:02:42;;;;;;;2.40;1.58;;;19.80;35.90;;;;;;4810083;29;20039;-77
2021/01/31 00:05:07;;;;;;;1.38;1.27;;;19.80;36.00;;;;;;4809322;29;20164;-77
2021/01/31 00:07:33;;;;;;;1.35;0.88;;;19.80;36.00;;;;;;4810311;29;20033;-72
2021/01/31 00:09:58;;;;;;;0.80;0.70;;;19.70;36.10;;;;;;4822188;29;20130;-76
2021/01/31 00:12:24;;;;;;;3.30;2.35;;;19.70;36.70;;;;;;4825668;29;20034;-76
2021/01/31 00:14:50;;;;;;;1.55;0.95;;;19.70;36.10;;;;;;4825887;29;20035;-71
2021/01/31 00:17:15;;;;;;;1.13;1.00;;;19.70;36.10;;;;;;4814012;29;20407;-71
2021/01/31 00:19:41;;;;;;;0.95;0.82;;;19.70;36.10;;;;;;4826245;29;20023;-71
2021/01/31 00:22:06;;;;;;;3.80;2.25;;;19.70;36.20;;;;;;4825733;29;20542;-71
2021/01/31 00:24:32;;;;;;;2.00;1.65;;;19.60;36.20;;;;;;4825682;29;20109;-71
2021/01/31 00:26:57;;;;;;;1.05;0.68;;;19.60;36.10;;;;;;4830259;29;20033;-77
2021/01/31 00:29:23;;;;;;;3.20;2.03;;;19.60;36.10;;;;;;4836448;29;20030;-77
2021/01/31 00:31:49;;;;;;;0.85;0.77;;;19.60;36.20;;;;;;4794428;29;20470;-77
2021/01/31 00:34:16;;;;;;;5.50;4.97;;;19.50;36.10;;;;;;4826009;29;20058;-77
2021/01/31 00:37:25;;;;;;;5.03;4.32;;;19.50;36.10;;;;;;4795156;29;20035;-77
2021/01/31 00:39:51;;;;;;;4.00;2.78;;;19.50;36.20;;;;;;4811426;29;20091;-77
2021/01/31 00:42:18;;;;;;;3.17;2.38;;;19.50;36.30;;;;;;4809807;29;20476;-77
2021/01/31 00:44:48;;;;;;;2.08;1.27;;;19.50;36.30;;;;;;4825467;29;20948;-77
2021/01/31 00:47:14;;;;;;;1.58;1.27;;;19.50;36.30;;;;;;4795569;29;20034;-77
2021/01/31 00:49:42;;;;;;;4.05;2.78;;;19.40;36.20;;;;;;4809626;29;20057;-77
2021/01/31 00:52:07;;;;;;;1.60;0.80;;;19.50;36.30;;;;;;4809515;29;20125;-76
2021/01/31 00:54:42;;;;;;;0.60;0.60;;;19.50;36.30;;;;;;4825048;29;20060;-76
2021/01/31 00:57:08;;;;;;;3.00;0.70;;;19.50;36.20;;;;;;4825925;29;20030;-76
2021/01/31 00:59:33;;;;;;;5.95;5.03;;;19.40;36.10;;;;;;4825820;29;20491;-76
2021/01/31 01:01:59;;;;;;;4.22;3.80;;;19.50;36.10;;;;;;4808716;29;20078;-77
2021/01/31 01:04:25;;;;;;;2.47;0.90;;;19.40;36.10;;;;;;4809358;29;20043;-77
2021/01/31 01:06:50;;;;;;;2.25;1.10;;;19.40;36.10;;;;;;4794143;29;20034;-76
2021/01/31 01:09:16;;;;;;;3.67;1.75;;;19.40;36.00;;;;;;4821363;29;20111;-76
2021/01/31 01:11:42;;;;;;;2.13;1.30;;;19.40;36.00;;;;;;4825295;29;20038;-76
2021/01/31 01:14:07;;;;;;;1.73;1.45;;;19.40;36.00;;;;;;4794050;29;20037;-76
2021/01/31 01:16:33;;;;;;;2.60;1.60;;;19.40;36.00;;;;;;4810316;29;20046;-76
2021/01/31 01:18:59;;;;;;;2.63;1.70;;;19.30;36.00;;;;;;4824744;29;20109;-76
2021/01/31 01:21:34;;;;;;;6.15;5.55;;;19.30;36.00;;;;;;4809067;29;20079;-76
2021/01/31 01:23:59;;;;;;;4.05;3.13;;;19.30;36.00;;;;;;4808785;29;20469;-77
2021/01/31 01:26:28;;;;;;;4.03;2.15;;;19.30;36.10;;;;;;4808177;29;20031;-76
2021/01/31 01:28:54;;;;;;;3.60;2.13;;;19.30;36.10;;;;;;4808541;29;20565;-72
2021/01/31 01:31:20;;;;;;;8.68;4.28;;;19.30;36.20;;;;;;4807377;29;20038;-77
2021/01/31 01:33:45;;;;;;;2.65;2.22;;;19.30;36.20;;;;;;4824284;29;20037;-77
2021/01/31 01:36:11;;;;;;;1.38;0.85;;;19.30;36.30;;;;;;4808452;29;20038;-77
2021/01/31 01:38:36;;;;;;;3.30;2.53;;;19.20;36.30;;;;;;4806539;29;20042;-78
2021/01/31 01:41:02;;;;;;;6.10;5.10;;;19.20;36.30;;;;;;4821789;29;20037;-77
2021/01/31 01:43:31;;;;;;;3.38;3.08;;;19.20;36.30;;;;;;4831400;29;20041;-73
2021/01/31 01:46:15;;;;;;;2.47;1.45;;;19.20;36.50;;;;;;4808708;29;20449;-72
2021/01/31 01:48:41;;;;;;;4.72;2.67;;;19.20;36.30;;;;;;4833197;29;20042;-71
2021/01/31 01:51:06;;;;;;;0.85;0.63;;;19.20;36.30;;;;;;4807996;29;20039;-71
2021/01/31 01:53:32;;;;;;;0.45;0.40;;;19.20;36.90;;;;;;4808688;29;20077;-71
2021/01/31 01:56:03;;;;;;;3.17;2.28;;;19.20;36.90;;;;;;4824364;29;20444;-71
2021/01/31 01:58:40;;;;;;;5.78;5.20;;;19.10;36.30;;;;;;4793752;29;20113;-71
2021/01/31 02:01:06;;;;;;;3.58;2.65;;;19.20;36.50;;;;;;4825462;29;20041;-71
2021/01/31 02:03:33;;;;;;;4.05;3.20;;;19.10;37.10;;;;;;4807781;29;20035;-71
2021/01/31 02:06:06;;;;;;;2.13;1.50;;;19.10;36.30;;;;;;4792446;29;20030;-72
2021/01/31 02:08:31;;;;;;;1.88;1.60;;;19.10;36.40;;;;;;4793217;29;20030;-72
2021/01/31 02:10:57;;;;;;;7.53;5.78;;;19.10;36.40;;;;;;4814109;29;20034;-72
2021/01/31 02:13:22;;;;;;;5.28;4.30;;;19.10;36.60;;;;;;4812177;29;20034;-77
2021/01/31 02:15:48;;;;;;;5.05;3.08;;;19.10;36.60;;;;;;4791811;29;20046;-77
2021/01/31 02:18:25;;;;;;;2.13;1.38;;;19.10;36.60;;;;;;4824381;29;20043;-77
2021/01/31 02:21:06;;;;;;;2.75;1.75;;;19.00;36.50;;;;;;4793365;29;20038;-77
2021/01/31 02:24:07;;;;;;;6.28;5.40;;;19.00;36.40;;;;;;4824065;29;20042;-77
2021/01/31 02:26:55;;;;;;;2.90;2.65;;;19.10;36.50;;;;;;4823750;29;20046;-72
2021/01/31 02:29:41;;;;;;;2.63;1.48;;;19.10;36.50;;;;;;5089505;28;20360;-71
2021/01/31 02:32:43;;;;;;;5.57;3.65;;;19.10;36.50;;;;;;5075864;28;20060;-71
2021/01/31 02:35:13;;;;;;;8.18;5.68;;;19.10;36.50;;;;;;5084665;28;20060;-70
2021/01/31 02:37:51;;;;;;;7.78;4.90;;;19.10;36.60;;;;;;5081357;28;20024;-76
2021/01/31 02:40:23;;;;;;;5.95;3.35;;;19.10;36.70;;;;;;5071481;28;20036;-76
2021/01/31 02:43:07;;;;;;;0.70;0.70;;;19.00;36.60;;;;;;5082948;28;20055;-75
2021/01/31 02:49:07;;;;;;;5.80;5.20;;;19.00;36.60;;;;;;5060822;28;20212;-79
2021/01/31 02:51:50;;;;;;;1.10;0.70;;;19.00;36.60;;;;;;5066672;28;20024;-77
2021/01/31 02:54:22;;;;;;;1.70;1.35;;;19.00;36.60;;;;;;5080951;28;20058;-79
2021/01/31 02:56:54;;;;;;;5.30;3.65;;;19.00;36.50;;;;;;5070388;28;20045;-79
2021/01/31 02:59:27;;;;;;;8.18;5.40;;;19.00;36.50;;;;;;5072078;28;20040;-79
2021/01/31 03:02:05;;;;;;;3.40;3.10;;;19.00;36.50;;;;;;5070737;28;20063;-78
2021/01/31 03:04:57;;;;;;;2.28;1.90;;;19.00;36.50;;;;;;5073239;28;20028;-79
2021/01/31 03:07:35;;;;;;;1.92;1.30;;;18.90;36.50;;;;;;5069037;28;20024;-71
2021/01/31 03:10:10;;;;;;;6.43;5.70;;;18.90;36.50;;;;;;5075804;28;20100;-71
2021/01/31 03:12:42;;;;;;;3.95;3.65;;;18.90;36.40;;;;;;5063674;28;20163;-71
2021/01/31 03:15:11;;;;;;;0.88;0.80;;;18.90;36.50;;;;;;5088609;28;20575;-71
2021/01/31 03:18:17;;;;;;;2.92;1.88;;;18.90;36.50;;;;;;5078695;28;20110;-71
2021/01/31 03:21:01;;;;;;;7.05;5.88;;;18.90;36.40;;;;;;5046414;28;20080;-70
2021/01/31 03:23:40;;;;;;;4.10;3.70;;;18.80;36.30;;;;;;5034826;28;20445;-69
2021/01/31 03:26:29;;;;;;;1.85;0.88;;;18.80;36.40;;;;;;5026193;28;20038;-75
2021/01/31 03:28:55;;;;;;;1.13;0.93;;;18.80;36.30;;;;;;5015982;28;20088;-75
2021/01/31 03:31:21;;;;;;;8.73;6.35;;;18.80;36.30;;;;;;5029384;28;20046;-76
2021/01/31 03:33:50;;;;;;;5.20;4.70;;;18.80;36.20;;;;;;5028772;28;20048;-77
2021/01/31 03:36:16;;;;;;;1.55;1.45;;;18.80;36.40;;;;;;5029336;28;20029;-77
2021/01/31 03:38:46;;;;;;;0.70;0.52;;;18.80;36.40;;;;;;5025567;28;20544;-77
2021/01/31 03:41:15;;;;;;;2.78;2.13;;;18.70;36.30;;;;;;5031918;28;20037;-77
2021/01/31 03:43:41;;;;;;;5.60;5.03;;;18.80;36.40;;;;;;5014712;28;20029;-77
2021/01/31 03:46:23;;;;;;;3.72;2.33;;;18.70;36.30;;;;;;5017553;28;20045;-77
2021/01/31 03:49:00;;;;;;;5.05;2.60;;;18.70;36.50;;;;;;5014062;28;20036;-76
2021/01/31 03:51:28;;;;;;;5.13;3.10;;;18.80;36.40;;;;;;5016088;28;20445;-76
2021/01/31 03:53:54;;;;;;;6.30;5.60;;;18.80;36.30;;;;;;5015954;28;20477;-75
2021/01/31 03:56:42;;;;;;;5.57;3.08;;;18.80;36.40;;;;;;5016277;28;20048;-76
2021/01/31 03:59:21;;;;;;;4.55;2.33;;;18.80;36.30;;;;;;5066538;28;20049;-76
2021/01/31 04:01:47;;;;;;;9.80;7.10;;;18.80;36.30;;;;;;5067263;28;20027;-77
2021/01/31 04:04:17;;;;;;;7.05;5.63;;;18.80;36.30;;;;;;5056921;28;20029;-76
2021/01/31 04:06:42;;;;;;;1.63;1.25;;;18.80;36.40;;;;;;5053869;28;20029;-77
2021/01/31 04:09:08;;;;;;;7.15;5.60;;;18.70;36.30;;;;;;5045667;28;20436;-77
2021/01/31 04:11:42;;;;;;;8.95;7.28;;;18.70;36.20;;;;;;5056620;28;20026;-75
2021/01/31 04:14:25;;;;;;;5.18;4.57;;;18.70;36.10;;;;;;5043395;28;20018;-78
2021/01/31 04:16:52;;;;;;;2.97;2.10;;;18.70;36.20;;;;;;5071615;28;20028;-78
2021/01/31 04:19:18;;;;;;;4.97;3.05;;;18.70;36.20;;;;;;5055015;28;20399;-78
2021/01/31 04:21:44;;;;;;;7.88;6.18;;;18.70;36.20;;;;;;5058659;28;20029;-78
2021/01/31 04:24:10;;;;;;;5.97;4.97;;;18.70;36.20;;;;;;5066117;28;20511;-77
2021/01/31 04:26:35;;;;;;;7.90;4.28;;;18.70;36.30;;;;;;5056847;28;20032;-78
2021/01/31 04:29:01;;;;;;;2.45;1.65;;;18.70;36.30;;;;;;5058964;28;20102;-79
2021/01/31 04:31:27;;;;;;;8.00;6.82;;;18.70;36.30;;;;;;5058576;28;20044;-78
2021/01/31 04:33:53;;;;;;;5.20;4.70;;;18.70;36.30;;;;;;5059942;28;20431;-77
2021/01/31 04:36:20;;;;;;;2.38;1.42;;;18.60;36.30;;;;;;5062103;28;20021;-77
2021/01/31 04:38:45;;;;;;;3.15;2.03;;;18.60;36.30;;;;;;5057198;28;20021;-77
2021/01/31 04:41:11;;;;;;;7.13;6.28;;;18.60;36.30;;;;;;5053135;28;20102;-76
2021/01/31 04:43:36;;;;;;;5.93;4.00;;;18.60;36.30;;;;;;5059166;28;20120;-77
2021/01/31 04:46:02;;;;;;;0.98;0.63;;;18.60;36.60;;;;;;5050632;28;20024;-76
2021/01/31 04:48:43;;;;;;;2.40;1.38;;;18.60;36.90;;;;;;5055375;28;20132;-71
2021/01/31 04:51:14;;;;;;;7.00;6.10;;;18.60;36.30;;;;;;5047960;28;20025;-70
2021/01/31 04:54:05;;;;;;;4.72;4.00;;;18.60;36.30;;;;;;5052659;28;20103;-71
2021/01/31 04:56:36;;;;;;;1.42;0.93;;;18.60;36.40;;;;;;5054040;28;20106;-71
2021/01/31 04:59:15;;;;;;;6.68;5.72;;;18.60;36.30;;;;;;5051336;28;20520;-70
2021/01/31 05:01:41;;;;;;;3.90;3.35;;;18.70;36.30;;;;;;5038523;28;20492;-71
2021/01/31 05:04:09;;;;;;;7.53;1.50;;;18.60;36.30;;;;;;5052425;28;20106;-70
2021/01/31 05:06:45;;;;;;;7.95;6.78;;;18.60;36.40;;;;;;5059020;28;20032;-71
2021/01/31 05:09:19;;;;;;;1.73;1.13;;;18.70;36.30;;;;;;5055421;28;20502;-71
2021/01/31 05:12:08;;;;;;;9.77;7.38;;;18.70;36.40;;;;;;5053503;28;20033;-72
2021/01/31 05:14:50;;;;;;;2.72;2.22;;;18.70;36.50;;;;;;5049982;28;20056;-71
2021/01/31 05:17:17;;;;;;;7.72;6.53;;;18.70;36.40;;;;;;5056831;28;20030;-72
2021/01/31 05:19:42;;;;;;;5.53;3.85;;;18.70;36.40;;;;;;5032557;28;20040;-71
2021/01/31 05:22:11;;;;;;;1.48;1.38;;;18.60;36.50;;;;;;5053560;28;20025;-71
2021/01/31 05:24:36;;;;;;;6.72;6.05;;;18.60;36.30;;;;;;5036428;28;20021;-70
2021/01/31 05:27:02;;;;;;;1.52;0.98;;;18.60;36.40;;;;;;5052670;28;20028;-70
2021/01/31 05:29:36;;;;;;;7.93;6.72;;;18.60;36.30;;;;;;5051620;28;20659;-70
2021/01/31 05:32:10;;;;;;;3.20;2.47;;;18.60;36.30;;;;;;5037485;28;20459;-70
2021/01/31 05:34:37;;;;;;;1.77;1.55;;;18.60;36.40;;;;;;5057533;28;20037;-70
2021/01/31 05:37:05;;;;;;;5.68;4.43;;;18.60;36.50;;;;;;5049134;28;20029;-70
2021/01/31 05:39:41;;;;;;;0.88;0.70;;;18.60;36.40;;;;;;5065500;28;20033;-70
2021/01/31 05:42:17;;;;;;;6.72;6.00;;;18.60;36.50;;;;;;5051843;28;20086;-70
2021/01/31 05:44:43;;;;;;;1.17;1.02;;;18.60;36.60;;;;;;5054045;28;20029;-70
2021/01/31 05:47:22;;;;;;;6.95;5.95;;;18.60;36.50;;;;;;5050378;28;20025;-71
2021/01/31 05:49:50;;;;;;;0.90;0.90;;;18.60;36.60;;;;;;5053955;28;20442;-71
2021/01/31 05:52:21;;;;;;;4.28;3.40;;;18.50;36.60;;;;;;5034981;28;20496;-72
2021/01/31 05:54:48;;;;;;;4.53;3.88;;;18.50;36.60;;;;;;5054969;28;20029;-72
2021/01/31 05:57:40;;;;;;;1.45;0.98;;;18.50;36.70;;;;;;5054761;28;20029;-72
2021/01/31 06:00:15;;;;;;;6.10;5.00;;;18.50;36.70;;;;;;5049136;28;20033;-72
2021/01/31 06:02:40;;;;;;;1.42;0.82;;;18.50;37.50;;;;;;5052051;28;20083;-71
2021/01/31 06:05:20;;;;;;;6.90;6.03;;;18.50;36.70;;;;;;5050396;28;20041;-71
2021/01/31 06:07:46;;;;;;;1.10;0.63;;;18.50;36.90;;;;;;5054329;28;20514;-72
2021/01/31 06:10:17;;;;;;;7.78;6.57;;;18.50;36.90;;;;;;5054654;28;20435;-72
2021/01/31 06:12:47;;;;;;;6.53;3.78;;;18.50;36.90;;;;;;5050049;28;20021;-78
2021/01/31 06:15:29;;;;;;;1.98;1.17;;;18.40;36.80;;;;;;5050897;28;20075;-78
2021/01/31 06:18:03;;;;;;;4.40;3.97;;;18.50;36.90;;;;;;5052458;28;20044;-77
2021/01/31 06:20:36;;;;;;;1.23;0.98;;;18.40;37.00;;;;;;5049761;28;20032;-78
2021/01/31 06:23:03;;;;;;;7.05;5.72;;;18.40;36.90;;;;;;5045295;28;20024;-78
2021/01/31 06:25:28;;;;;;;1.55;0.98;;;18.40;36.90;;;;;;5054346;28;20559;-78
2021/01/31 06:28:10;;;;;;;6.95;6.22;;;18.40;36.90;;;;;;5052737;28;20041;-77
2021/01/31 06:30:52;;;;;;;1.95;0.88;;;18.40;37.10;;;;;;5051586;28;20025;-78
2021/01/31 06:33:17;;;;;;;7.85;6.90;;;18.40;36.90;;;;;;5058067;28;20025;-76
2021/01/31 06:35:43;;;;;;;2.20;1.23;;;18.40;36.90;;;;;;5053311;28;20388;-77
2021/01/31 06:38:18;;;;;;;8.68;7.10;;;18.40;36.80;;;;;;5049396;28;20029;-77
2021/01/31 06:41:08;;;;;;;4.75;4.35;;;18.50;36.60;;;;;;5052567;28;20036;-77
2021/01/31 06:43:33;;;;;;;6.85;5.55;;;18.60;36.50;;;;;;5046448;28;20108;-77
2021/01/31 06:46:10;;;;;;;4.82;4.32;;;18.70;36.30;;;;;;5051886;28;20104;-76
2021/01/31 06:48:54;;;;;;;3.13;1.25;;;18.80;36.20;;;;;;5047254;28;20116;-76
2021/01/31 06:51:36;;;;;;;6.53;5.18;;;18.90;36.00;;;;;;5058918;28;20022;-75
2021/01/31 06:54:23;;;;;;;1.63;1.02;;;19.00;35.90;;;;;;5063784;28;20032;-76
2021/01/31 06:57:26;;;;;;;6.10;5.35;;;19.10;35.60;;;;;;5038844;28;20026;-76
2021/01/31 07:00:29;;;;;;;2.00;1.40;;;19.20;35.40;;;;;;5065596;28;20039;-76
2021/01/31 07:02:57;;;;;;;5.72;4.68;;;19.30;35.20;;;;;;5064697;28;20071;-75
2021/01/31 07:05:35;;;;;;;1.13;0.88;;;19.40;35.00;;;;;;5064071;28;20029;-76
2021/01/31 07:08:29;;;;;;;7.03;5.65;;;19.50;34.80;;;;;;5049694;28;20029;-75
2021/01/31 07:11:12;;;;;;;1.55;0.90;;;19.60;34.60;;;;;;5078869;28;20136;-75
2021/01/31 07:13:55;;;;;;;6.85;5.93;;;19.70;34.40;;;;;;5045413;28;20061;-76
2021/01/31 07:16:30;;;;;;;0.77;0.77;;;19.70;34.30;;;;;;5049779;28;20032;-76
2021/01/31 07:19:01;;;;;;;6.90;6.18;;;19.80;34.20;;;;;;5058131;28;20048;-75
2021/01/31 07:21:36;;;;;;;1.67;1.23;;;19.80;34.10;;;;;;5052891;28;20029;-75
2021/01/31 07:24:06;;;;;;;7.50;6.10;;;19.90;34.00;;;;;;5062116;28;20488;-76
2021/01/31 07:27:02;;;;;;;0.45;0.40;;;20.00;33.90;;;;;;5065198;28;20529;-77
2021/01/31 07:29:53;;;;;;;7.85;6.78;;;20.00;33.90;;;;;;5062333;28;20037;-75
2021/01/31 07:32:22;;;;;;;2.00;1.13;;;20.10;33.80;;;;;;5047290;28;20025;-75
2021/01/31 07:35:02;;;;;;;8.25;6.75;;;20.10;33.70;;;;;;5067602;28;20408;-75
2021/01/31 07:37:28;;;;;;;0.47;0.47;;;20.10;33.60;;;;;;5061727;28;20477;-76
2021/01/31 07:39:59;;;;;;;0.80;0.80;;;20.20;33.60;;;;;;5063185;28;20028;-75
2021/01/31 07:42:25;;;;;;;5.40;4.90;;;20.20;33.50;;;;;;5089933;28;20460;-75
2021/01/31 07:44:55;;;;;;;3.13;1.10;;;20.30;33.60;;;;;;5073855;28;20041;-75
2021/01/31 07:47:22;;;;;;;6.80;6.10;;;20.30;33.40;;;;;;5062484;28;20031;-75
2021/01/31 07:49:54;;;;;;;2.70;1.38;;;20.30;33.40;;;;;;5068500;28;20056;-75
2021/01/31 07:52:20;;;;;;;8.20;6.55;;;20.40;33.50;;;;;;5047681;28;20030;-75
2021/01/31 07:54:45;;;;;;;1.85;1.10;;;20.40;33.40;;;;;;5062540;28;20109;-75
2021/01/31 07:57:27;;;;;;;1.05;0.90;;;20.40;33.40;;;;;;5045635;28;20408;-75
2021/01/31 07:59:53;;;;;;;3.63;2.60;;;20.40;33.30;;;;;;5057718;28;20068;-75
2021/01/31 08:02:36;;;;;;;1.77;1.10;;;20.40;33.20;;;;;;5050235;28;20021;-75
2021/01/31 08:05:01;;;;;;;7.22;6.00;;;20.50;33.20;;;;;;5050357;28;20376;-75
2021/01/31 08:07:59;;;;;;;3.75;1.20;;;20.50;33.10;;;;;;5064656;28;20105;-75
2021/01/31 08:10:58;;;;;;;7.55;6.50;;;20.60;33.20;;;;;;5067188;28;20393;-75
2021/01/31 08:13:43;;;;;;;1.23;0.95;;;20.60;33.00;;;;;;5089705;28;20116;-74
2021/01/31 08:16:41;;;;;;;9.23;7.07;;;20.60;33.00;;;;;;5053401;28;20407;-75
2021/01/31 08:19:11;;;;;;;0.70;0.70;;;20.60;32.90;;;;;;5088578;28;20033;-76
2021/01/31 08:21:55;;;;;;;1.67;1.13;;;20.70;32.90;;;;;;5046467;28;20602;-75
2021/01/31 08:24:55;;;;;;;2.88;2.53;;;20.70;32.80;;;;;;5048554;28;20034;-74
2021/01/31 08:27:42;;;;;;;2.20;1.17;;;20.70;32.80;;;;;;5044012;28;20061;-76
2021/01/31 08:30:22;;;;;;;3.17;2.85;;;20.70;32.90;;;;;;5055085;28;20107;-75
2021/01/31 08:33:00;;;;;;;2.65;1.10;;;20.70;33.10;;;;;;5061859;28;20071;-76
2021/01/31 08:35:31;;;;;;;5.00;4.50;;;20.70;33.10;;;;;;5043643;28;20030;-76
2021/01/31 08:38:20;;;;;;;0.90;0.80;;;20.70;33.30;;;;;;5051484;28;20554;-75
2021/01/31 08:41:01;;;;;;;6.78;6.10;;;20.70;33.20;;;;;;5053514;28;20413;-76
2021/01/31 08:43:31;;;;;;;2.20;1.17;;;20.70;33.20;;;;;;5060227;28;20041;-75
2021/01/31 08:46:14;;;;;;;7.80;5.35;;;20.70;33.20;;;;;;5050978;28;20032;-76
2021/01/31 08:48:39;;;;;;;4.20;2.90;;;20.70;33.20;;;;;;5069908;28;20040;-76
2021/01/31 08:51:16;;;;;;;1.70;1.10;;;20.70;33.30;;;;;;5053936;28;20072;-75
2021/01/31 08:53:42;;;;;;;5.13;4.60;;;20.70;33.40;;;;;;5055356;28;20142;-76
2021/01/31 08:56:24;;;;;;;1.23;1.02;;;20.70;33.40;;;;;;5065272;28;20030;-76
2021/01/31 08:58:49;;;;;;;8.02;7.10;;;20.80;33.40;;;;;;5055286;28;20102;-75
2021/01/31 09:01:15;;;;;;;4.72;1.15;;;20.80;33.30;;;;;;5058063;28;20405;-75
2021/01/31 09:03:42;;;;;;;1.17;0.82;;;20.80;33.40;;;;;;5051777;28;20025;-74
2021/01/31 09:06:08;;;;;;;6.00;5.32;;;20.80;33.40;;;;;;5063339;28;20036;-74
2021/01/31 09:08:33;;;;;;;1.52;0.85;;;20.90;33.40;;;;;;5054042;28;20025;-74
2021/01/31 09:11:04;;;;;;;12.80;10.52;;;20.90;33.50;;;;;;5069704;28;20094;-74
2021/01/31 09:13:33;;;;;;;3.30;2.20;;;20.90;33.30;;;;;;5058482;28;20067;-75
2021/01/31 09:16:18;;;;;;;1.58;0.80;;;21.00;33.40;;;;;;5053730;28;20025;-76
2021/01/31 09:18:44;;;;;;;7.00;5.88;;;20.90;33.40;;;;;;5053855;28;20025;-76
2021/01/31 09:21:27;;;;;;;4.10;1.63;;;20.90;33.40;;;;;;5052552;28;20106;-77
2021/01/31 09:24:00;;;;;;;8.20;7.05;;;20.90;33.50;;;;;;5050146;28;20025;-76
2021/01/31 09:26:26;;;;;;;6.18;4.90;;;20.90;33.60;;;;;;5038111;28;20067;-75
2021/01/31 09:28:52;;;;;;;2.10;0.52;;;20.90;33.70;;;;;;5062926;28;20053;-76
2021/01/31 09:31:17;;;;;;;7.00;6.18;;;20.90;33.70;;;;;;5037325;28;20059;-76
2021/01/31 09:33:53;;;;;;;0.20;0.20;;;20.90;33.80;;;;;;5053375;28;20033;-75
2021/01/31 09:36:19;;;;;;;;;;;20.90;33.90;;;;;;5057179;28;20436;-75
2021/01/31 09:38:48;;;;;;;5.78;4.80;;;20.80;33.90;;;;;;5072663;28;19957;-75
2021/01/31 09:41:15;;;;;;;0.50;0.50;;;20.90;34.00;;;;;;5062652;28;20039;-70
2021/01/31 09:43:40;;;;;;;2.83;2.20;;;20.90;34.00;;;;;;5040928;28;20089;-71
2021/01/31 09:46:08;;;;;;;4.18;3.50;;;20.90;33.90;;;;;;5071019;28;20383;-70
2021/01/31 09:48:34;;;;;;;2.25;1.08;;;20.90;33.90;;;;;;5055891;28;20033;-70
2021/01/31 09:51:01;;;;;;;10.60;8.57;;;20.90;33.90;;;;;;5044269;28;20044;-70
2021/01/31 09:53:28;;;;;;;5.47;4.03;;;20.90;34.00;;;;;;5034789;28;20036;-70
2021/01/31 09:55:53;;;;;;;0.68;0.68;;;20.90;34.10;;;;;;5070960;28;20020;-70
2021/01/31 09:58:45;;;;;;;8.73;6.63;;;20.90;34.00;;;;;;5064320;28;20499;-71
2021/01/31 10:01:24;;;;;;;1.05;0.80;;;21.00;34.10;;;;;;5043721;28;20041;-70
2021/01/31 10:04:03;;;;;;;1.38;1.10;;;21.00;34.00;;;;;;5048536;28;20033;-70
2021/01/31 10:06:31;;;;;;;8.88;7.10;;;21.00;34.00;;;;;;5034681;28;20123;-70
2021/01/31 10:08:59;;;;;;;0.55;0.50;;;21.00;34.00;;;;;;5051226;28;20039;-70
2021/01/31 10:11:27;;;;;;;1.35;1.00;;;21.00;34.00;;;;;;5047346;28;20026;-70
2021/01/31 10:13:53;;;;;;;7.72;5.97;;;21.00;34.00;;;;;;5053102;28;20041;-70
2021/01/31 10:16:30;;;;;;;1.35;0.77;;;21.00;33.90;;;;;;5084746;28;20074;-70
2021/01/31 10:19:19;;;;;;;0.75;0.47;;;21.10;33.90;;;;;;5038004;28;20040;-73
2021/01/31 10:22:07;;;;;;;7.53;6.55;;;21.10;33.90;;;;;;5038171;28;20045;-73
2021/01/31 10:24:32;;;;;;;0.98;0.90;;;21.20;33.90;;;;;;5095761;28;20036;-74
2021/01/31 10:27:20;;;;;;;0.85;0.52;;;21.20;33.90;;;;;;5044874;28;20080;-73
2021/01/31 10:29:46;;;;;;;7.22;6.47;;;21.20;33.90;;;;;;5039584;28;20108;-73
2021/01/31 10:32:39;;;;;;;3.25;0.50;;;21.30;34.00;;;;;;5054060;28;20112;-73
2021/01/31 10:35:24;;;;;;;1.95;0.82;;;21.20;33.90;;;;;;5037735;28;20040;-74
2021/01/31 10:37:50;;;;;;;1.37;1.23;;;21.30;33.90;;;;;;5040361;28;20163;-74
2021/01/31 10:40:15;;;;;;;4.90;3.83;;;21.20;33.80;;;;;;5039651;28;20112;-74
2021/01/31 10:42:41;;;;;;;1.80;1.10;;;21.30;33.90;;;;;;5042357;28;20032;-72
2021/01/31 10:45:21;;;;;;;2.03;1.42;;;21.30;33.90;;;;;;5038721;28;20080;-73
2021/01/31 10:47:47;;;;;;;5.43;4.13;;;21.30;33.90;;;;;;5024996;28;20039;-72
2021/01/31 10:50:14;;;;;;;2.15;1.38;;;21.30;33.90;;;;;;5044166;28;20120;-73
2021/01/31 10:52:40;;;;;;;0.82;0.35;;;21.20;34.00;;;;;;5054496;28;20029;-74
2021/01/31 10:55:06;;;;;;;8.50;7.10;;;21.20;34.00;;;;;;5038173;28;20116;-74
2021/01/31 10:57:32;;;;;;;1.75;0.85;;;21.20;34.00;;;;;;5065275;28;20044;-73
2021/01/31 10:59:58;;;;;;;1.65;1.10;;;21.20;34.00;;;;;;5055512;28;20060;-73
2021/01/31 11:02:23;;;;;;;1.38;0.73;;;21.20;34.00;;;;;;5055114;28;20032;-72
2021/01/31 11:04:49;;;;;;;3.67;3.35;;;21.20;34.00;;;;;;5056136;28;20021;-73
2021/01/31 11:07:14;;;;;;;0.95;0.70;;;21.20;34.20;;;;;;5055419;28;20104;-72
2021/01/31 11:09:40;;;;;;;2.17;1.35;;;21.30;34.10;;;;;;5055653;28;20500;-73
2021/01/31 11:12:06;;;;;;;6.57;5.38;;;21.20;34.00;;;;;;5053754;28;20028;-72
2021/01/31 11:14:32;;;;;;;7.53;0.82;;;21.20;33.80;;;;;;5052611;28;20174;-72
2021/01/31 11:16:59;;;;;;;1.48;0.82;;;21.20;33.70;;;;;;5050325;28;20052;-72
2021/01/31 11:19:25;;;;;;;9.25;7.13;;;21.30;33.60;;;;;;5042734;28;20029;-73
2021/01/31 11:21:50;;;;;;;3.20;2.92;;;21.30;33.50;;;;;;5054189;28;20025;-73
2021/01/31 11:24:16;;;;;;;2.40;1.20;;;21.30;33.50;;;;;;5054578;28;20028;-72
2021/01/31 11:26:41;;;;;;;0.43;0.43;;;21.20;33.40;;;;;;5053012;28;20586;-72
2021/01/31 11:29:07;;;;;;;9.65;7.07;;;21.20;33.40;;;;;;5055605;28;20045;-72
2021/01/31 11:31:32;;;;;;;4.30;3.92;;;21.20;33.90;;;;;;5055848;28;20021;-72
2021/01/31 11:33:58;;;;;;;2.75;1.42;;;21.30;33.30;;;;;;5070298;28;20028;-72
2021/01/31 11:36:24;;;;;;;1.35;1.20;;;21.20;33.10;;;;;;5052268;28;20014;-73
2021/01/31 11:38:50;;;;;;;5.80;5.18;;;21.20;33.20;;;;;;5040742;28;20029;-73
2021/01/31 11:41:16;;;;;;;2.35;1.45;;;21.20;33.10;;;;;;5042713;28;20036;-73
2021/01/31 11:43:41;;;;;;;2.40;1.80;;;21.20;33.00;;;;;;5034725;28;20069;-72
2021/01/31 11:46:07;;;;;;;1.35;0.50;;;21.30;33.00;;;;;;5057377;28;20079;-73
2021/01/31 11:48:32;;;;;;;5.70;5.07;;;21.20;32.80;;;;;;5055388;28;20106;-73
2021/01/31 11:50:58;;;;;;;2.60;1.40;;;21.20;32.90;;;;;;5045685;28;20022;-73
2021/01/31 11:53:24;;;;;;;1.92;1.05;;;21.20;33.50;;;;;;5047445;28;20511;-71
2021/01/31 11:55:50;;;;;;;5.22;1.17;;;21.20;32.80;;;;;;5042928;28;20032;-72
2021/01/31 11:58:15;;;;;;;8.07;7.20;;;21.20;32.80;;;;;;5043946;28;20069;-70
2021/01/31 12:00:41;;;;;;;3.58;3.25;;;21.20;32.80;;;;;;5052571;28;20578;-70
2021/01/31 12:03:08;;;;;;;0.95;0.63;;;21.20;33.50;;;;;;5052651;28;20029;-70
2021/01/31 12:05:34;;;;;;;6.43;1.90;;;21.20;32.80;;;;;;5044620;28;20037;-71
2021/01/31 12:07:59;;;;;;;4.93;1.50;;;21.20;32.90;;;;;;5051565;28;20033;-70
2021/01/31 12:10:26;;;;;;;20.10;2.33;;;21.20;32.90;;;;;;5050182;28;20497;-71
2021/01/31 12:12:52;;;;;;;10.48;7.28;;;21.20;32.90;;;;;;5034815;28;20033;-72
2021/01/31 12:15:17;;;;;;;6.57;5.20;;;21.20;33.00;;;;;;5039072;28;20048;-72
2021/01/31 12:17:43;;;;;;;6.82;2.53;;;21.20;33.10;;;;;;5048292;28;20152;-71
2021/01/31 12:20:10;;;;;;;15.38;1.50;;;21.20;33.00;;;;;;5041669;28;20044;-71
2021/01/31 12:22:35;;;;;;;4.45;1.10;;;21.20;32.90;;;;;;5044715;28;20048;-71
2021/01/31 12:25:01;;;;;;;2.25;0.73;;;21.20;32.90;;;;;;5045130;28;20103;-71
2021/01/31 12:27:28;;;;;;;8.43;1.95;;;21.20;32.90;;;;;;5048705;28;20148;-71
2021/01/31 12:29:53;;;;;;;4.32;1.17;;;21.20;33.00;;;;;;5052276;28;20032;-71
2021/01/31 12:32:19;;;;;;;5.38;2.38;;;21.20;33.00;;;;;;5044492;28;20048;-71
2021/01/31 12:34:44;;;;;;;2.17;0.93;;;21.30;33.00;;;;;;5048673;28;20123;-71
2021/01/31 12:37:11;;;;;;;2.05;0.88;;;21.20;32.90;;;;;;5047512;28;20036;-71
2021/01/31 12:39:39;;;;;;;4.82;0.93;;;21.20;32.90;;;;;;5047548;28;20393;-71
2021/01/31 12:42:05;;;;;;;4.70;1.58;;;21.20;32.90;;;;;;5051056;28;20057;-71
2021/01/31 12:44:30;;;;;;;6.05;1.80;;;21.30;33.00;;;;;;5052353;28;20535;-72
2021/01/31 12:46:56;;;;;;;4.40;1.45;;;21.20;32.90;;;;;;5039901;28;20463;-72
2021/01/31 12:49:21;;;;;;;1.55;1.20;;;21.20;32.90;;;;;;5052980;28;20520;-71
2021/01/31 12:51:47;;;;;;;13.70;1.13;;;21.20;33.00;;;;;;5044772;28;20123;-72
2021/01/31 12:54:12;;;;;;;1.75;1.30;;;21.20;33.00;;;;;;5053496;28;20029;-71
2021/01/31 12:56:38;;;;;;;1.52;1.20;;;21.20;33.00;;;;;;5046277;28;20031;-74
2021/01/31 12:59:04;;;;;;;3.80;1.20;;;21.20;33.00;;;;;;5036615;28;20029;-75
2021/01/31 13:01:30;;;;;;;1.77;0.55;;;21.20;33.10;;;;;;5051393;28;20040;-77
2021/01/31 13:03:56;;;;;;;2.33;0.65;;;21.20;33.20;;;;;;5052277;28;20032;-76
2021/01/31 13:06:21;;;;;;;1.85;1.00;;;21.10;33.20;;;;;;5049161;28;20033;-71
2021/01/31 13:08:47;;;;;;;0.52;0.43;;;21.10;33.30;;;;;;5046366;28;20025;-71
2021/01/31 13:11:15;;;;;;;2.08;0.75;;;21.10;33.30;;;;;;5051635;28;20416;-72
2021/01/31 13:13:41;;;;;;;2.10;1.50;;;21.10;33.40;;;;;;5052795;28;20017;-71